Date,TemperatureHighF,TemperatureAvgF,TemperatureLowF,DewpointHighF,DewpointAvgF,DewpointLowF,HumidityHigh,HumidityAvg,HumidityLow,PressureMaxIn,PressureMinIn,WindSpeedMaxMPH,WindSpeedAvgMPH,GustSpeedMaxMPH,PrecipitationSumIn
2013-10-1,61.9,55.3,51.4,41.1,36.1,30.4,60,49,43,0.00,40.00,0,-999,0,0.00
2013-10-2,61.0,52.4,48.0,42.9,37.1,29.4,66,56,45,0.00,40.00,0,-999,0,0.00
2013-10-3,56.1,49.0,44.8,31.5,26.5,22.3,48,41,38,0.00,40.00,0,-999,0,0.00
2013-10-4,59.7,50.9,45.0,31.3,24.5,19.6,38,35,33,0.00,40.00,0,-999,0,0.00
2013-10-5,63.6,53.4,47.5,29.0,23.7,19.8,37,31,26,0.00,40.00,0,-999,0,0.00
2013-10-6,66.7,57.7,52.2,29.1,23.4,20.1,30,26,24,0.00,40.00,0,-999,0,0.00
2013-10-7,64.2,56.3,50.9,26.7,22.0,18.1,29,26,24,0.00,40.00,0,-999,0,0.00
2013-10-8,59.2,51.8,46.0,24.3,19.7,17.4,33,28,26,0.00,40.00,0,-999,0,0.00
2013-10-9,46.0,39.6,35.8,31.7,25.2,18.8,79,59,34,0.00,40.00,0,-999,0,0.00
2013-10-10,46.9,40.2,35.1,38.7,33.6,29.2,83,77,71,0.00,40.00,0,-999,0,0.00
2013-10-11,53.6,45.3,39.4,40.3,35.5,31.9,81,69,55,0.00,40.00,0,-999,0,0.00
2013-10-12,54.1,46.0,40.5,36.7,32.3,28.6,65,59,49,0.00,40.00,0,-999,0,0.00
2013-10-13,50.9,43.7,38.5,36.0,32.1,28.9,72,64,53,0.00,40.00,0,-999,0,0.00
2013-10-14,56.1,47.7,43.2,34.6,30.3,26.3,61,51,43,0.00,40.00,0,-999,0,0.00
2013-10-15,56.7,49.2,44.8,35.3,30.8,28.4,57,49,43,0.00,40.00,0,-999,0,0.00
2013-10-16,58.3,50.1,44.8,31.5,27.0,24.0,49,41,35,0.00,40.00,0,-999,0,0.00
2013-10-17,59.0,51.7,48.0,32.3,27.4,24.4,41,39,36,0.00,40.00,0,-999,0,0.00
2013-10-18,62.3,54.6,49.5,33.6,27.1,20.7,40,35,29,0.00,40.00,0,-999,0,0.00
2013-10-19,64.0,56.5,52.3,28.0,23.4,21.0,30,28,25,0.00,40.00,0,-999,0,0.00
2013-10-20,62.6,56.0,52.2,26.3,22.7,20.1,29,27,25,0.00,40.00,0,-999,0,0.00
2013-10-21,66.2,58.6,53.6,28.3,23.2,20.3,28,25,23,0.00,40.00,0,-999,0,0.00
2013-10-22,63.7,57.0,55.6,26.2,21.4,20.3,25,25,24,0.00,40.00,0,-999,0,0.00